createdAt,value
2023-02-05T00:16:15.842Z,13.7
2023-02-05T00:31:28.296Z,11.6
2023-02-05T00:46:37.553Z,7.8
2023-02-05T01:01:48.743Z,8
2023-02-05T01:16:59.397Z,7.2
2023-02-05T01:32:09.624Z,6.8
2023-02-05T01:47:19.012Z,6.1
2023-02-05T02:02:29.127Z,7.6
2023-02-05T02:17:38.347Z,5.8
2023-02-05T02:32:47.444Z,5
2023-02-05T02:47:56.882Z,10.1
2023-02-05T03:03:09.352Z,4
2023-02-05T03:18:18.379Z,6.3
2023-02-05T03:33:27.955Z,7.3
2023-02-05T03:48:37.209Z,7.8
2023-02-05T04:03:46.876Z,3.7
2023-02-05T04:18:59.607Z,6
2023-02-05T04:34:11.083Z,3.8
2023-02-05T04:49:21.089Z,6.6
2023-02-05T05:04:30.943Z,5.2
2023-02-05T05:19:40.205Z,4.8
2023-02-05T05:34:50.371Z,6.5
2023-02-05T05:50:00.019Z,4.2
2023-02-05T06:05:09.447Z,4.1
2023-02-05T06:20:19.250Z,5.6
2023-02-05T06:35:28.476Z,4.4
2023-02-05T06:50:38.128Z,3.8
2023-02-05T07:05:47.637Z,3.6
2023-02-05T07:20:59.129Z,4
2023-02-05T07:36:08.611Z,4.5
2023-02-05T07:51:18.317Z,4.5
2023-02-05T08:06:27.710Z,3.4
2023-02-05T08:21:37.348Z,9.3
2023-02-05T08:36:46.529Z,6.5
2023-02-05T08:51:56.323Z,7.8
2023-02-05T09:07:05.868Z,7
2023-02-05T09:22:15.583Z,8.8
2023-02-05T09:37:24.345Z,9.1
2023-02-05T09:52:33.818Z,13.9
2023-02-05T10:07:43.544Z,11.3
2023-02-05T10:22:53.208Z,9.8
2023-02-05T10:38:06.119Z,11.8
2023-02-05T10:53:15.957Z,12.2
2023-02-05T11:08:24.751Z,12.9
2023-02-05T11:23:34.574Z,11.6
2023-02-05T11:38:44.380Z,16.8
2023-02-05T11:53:54.962Z,14.7
2023-02-05T12:09:04.873Z,9.8
2023-02-05T12:24:14.581Z,9.6
2023-02-05T12:39:24.069Z,11.4
2023-02-05T12:54:34.536Z,11.9
2023-02-05T13:09:44.195Z,10
2023-02-05T13:24:53.957Z,13.1
2023-02-05T13:40:04.732Z,15.4
2023-02-05T13:55:14.098Z,12
2023-02-05T14:10:23.433Z,11.2
2023-02-05T14:25:33.659Z,15.2
2023-02-05T14:40:43.531Z,13
2023-02-05T14:55:53.082Z,12.3
2023-02-05T15:11:02.754Z,15.4
2023-02-05T15:26:13.379Z,14.8
2023-02-05T15:41:21.737Z,10.2
2023-02-05T15:56:30.817Z,12.6
2023-02-05T16:11:42.162Z,13.8
2023-02-05T16:26:51.175Z,15.5
2023-02-05T16:41:59.798Z,18.5
2023-02-05T16:57:09.141Z,15.4
2023-02-05T17:12:18.993Z,18.5
2023-02-05T17:27:28.827Z,22.2
2023-02-05T17:42:39.373Z,15.5
2023-02-05T17:57:48.828Z,19.4
2023-02-05T18:12:59.356Z,14.5
2023-02-05T18:28:09.099Z,12.8
2023-02-05T18:43:19.284Z,13.7
2023-02-05T18:58:29.138Z,15.9
2023-02-05T19:13:38.777Z,18.7
2023-02-05T19:28:48.488Z,17.2
2023-02-05T19:43:57.734Z,23.4
2023-02-05T19:59:06.209Z,28.4
2023-02-05T20:14:15.669Z,37.7
2023-02-05T20:29:25.156Z,42.1
2023-02-05T20:44:41.019Z,46.3
2023-02-05T20:59:50.463Z,51.3
2023-02-05T21:15:00.390Z,41.7
2023-02-05T21:30:10.324Z,49.6
2023-02-05T21:45:20.769Z,47.4
2023-02-05T22:00:30.073Z,57.6
2023-02-05T22:15:39.686Z,46.7
2023-02-05T22:30:49.767Z,45.9
2023-02-05T22:46:00.001Z,46
2023-02-05T23:01:10.044Z,48.2
2023-02-05T23:16:19.354Z,40.9
2023-02-05T23:31:29.265Z,41.9
2023-02-05T23:46:38.805Z,39.4
